• Join FlightAware (Why Join?)
  • Login
  • US Flag GB Flag 
02:05 EST


 

Airport Tracker/Info


-or-


 

Live Flight TrackerFlight Track Log ✈ PAG2 ✈ 18-Aug-2013 ✈ CJR3 - CYWG

Flight Track Log - Related Links

Times and Time Zones

All times are in EDT time to prevent confusion due to time zone crossing. See the PAG2 flight status page for this flight to view local times or setup timezone preferences in your user account.

Time Position Orientation Groundspeed Altitude Reporting Facility
EDT Latitude Longitude Course Direction KTS MPH feet Rate Location/Type
03:30 53.2606 -100.5780 145° Southeast  Level Estimated
03:31 53.2049 -100.5135 145° Southeast  Level FlightAware Approximate
03:32 53.1481 -100.4519 156° South  Level Estimated
03:33 53.0913 -100.3904 147° Southeast  Level Estimated
03:34 53.0339 -100.3305 148° Southeast  Level FlightAware Approximate
03:35 52.9765 -100.2707 148° Southeast  Level FlightAware Approximate
03:35 53.1167 -100.4500 148° Southeast 260 299 17,000  Level Winnipeg Center
03:36 52.9191 -100.2110 148° Southeast  Level FlightAware Approximate
03:36 53.0500 -100.3667 143° Southeast 270 311 17,100  Level Winnipeg Center
03:37 52.8616 -100.1515 148° Southeast  Level FlightAware Approximate
03:37 53.0000 -100.3000 141° Southeast 280 322 16,800  Level Winnipeg Center
03:38 52.8041 -100.0922 148° Southeast  Level FlightAware Approximate
03:38 52.9333 -100.2167 143° Southeast 280 322 16,900  Level Winnipeg Center
03:39 52.7466 -100.0330 148° Southeast  Level FlightAware Approximate
03:39 52.8500 -100.1833 166° South 280 322 17,000  Level Winnipeg Center
03:40 52.6890 -99.9740 148° Southeast  Level FlightAware Approximate
03:40 52.7833 -100.1000 143° Southeast 280 322 17,000  Level Winnipeg Center
03:41 52.7167 -100.0000 138° Southeast 280 322 17,000  Level Winnipeg Center
03:42 52.6500 -99.9500 156° South 280 322 17,000  Level Winnipeg Center
03:43 52.5833 -99.8500 138° Southeast 280 322 17,000  Level Winnipeg Center
03:44 52.5167 -99.8000 155° Southeast 280 322 17,000  Level Winnipeg Center
03:45 52.4500 -99.7333 149° Southeast 280 322 17,000  Level Winnipeg Center
03:46 52.4000 -99.6833 149° Southeast 280 322 17,000  Level Winnipeg Center
03:47 52.3333 -99.6000 143° Southeast 280 322 17,100  Climbing Winnipeg Center
03:48 52.2667 -99.5333 149° Southeast 280 322 17,000 -60 Descending Winnipeg Center
03:49 52.2000 -99.4500 143° Southeast 280 322 17,000  Level Winnipeg Center
03:50 52.1333 -99.4000 155° Southeast 280 322 17,000  Level Winnipeg Center
03:51 52.0667 -99.3333 148° Southeast 270 311 17,000  Level Winnipeg Center
03:52 52.0000 -99.2833 155° Southeast 270 311 17,000  Level Winnipeg Center
03:53 51.9333 -99.2167 148° Southeast 270 311 17,000  Level Winnipeg Center
03:54 51.8667 -99.1333 142° Southeast 270 311 17,000  Level Winnipeg Center
03:55 51.8167 -99.0833 148° Southeast 270 311 17,000  Level Winnipeg Center
03:56 51.7333 -99.0167 154° Southeast 270 311 17,000  Level Winnipeg Center
03:57 51.6833 -98.9667 148° Southeast 270 311 17,000  Level Winnipeg Center
03:58 51.6167 -98.9000 148° Southeast 270 311 17,000  Level Winnipeg Center
03:59 51.5500 -98.8167 142° Southeast 270 311 17,000  Level Winnipeg Center
04:00 51.4833 -98.7667 155° Southeast 270 311 17,000  Level Winnipeg Center
04:01 51.4167 -98.7167 155° Southeast 270 311 17,000  Level Winnipeg Center
04:02 51.3667 -98.6333 134° Southeast 260 299 17,000 -60 Level Winnipeg Center
04:03 51.3000 -98.5667 148° Southeast 260 299 16,900 -60 Descending Winnipeg Center
04:04 51.2333 -98.5167 155° Southeast 260 299 16,900 -60 Level Winnipeg Center
04:05 51.1667 -98.4667 149° Southeast 260 299 16,800  Descending Winnipeg Center
04:06 51.1521 -98.4310 146° Southeast  Level FlightAware Approximate
04:06 51.1333 -98.4000 129° Southeast 260 299 17,000  Level Winnipeg Center
04:07 51.0667 -98.3167 142° Southeast 260 299 17,000  Level Winnipeg Center
04:08 51.0000 -98.2667 155° Southeast 260 299 17,000  Level Winnipeg Center
04:09 50.9333 -98.2167 155° Southeast 260 299 17,000  Level Winnipeg Center
04:10 50.8833 -98.1667 147° Southeast 260 299 17,000 -60 Level Winnipeg Center
04:11 50.8560 -98.1226 148° Southeast  Level FlightAware Approximate
04:12 50.7500 -98.0500 151° Southeast 260 299 16,900  Level Winnipeg Center
04:13 50.7529 -98.0216 149° Southeast  Level FlightAware Approximate
04:13 50.7000 -98.0000 148° Southeast 250 288 17,000  Level Winnipeg Center
04:14 50.6333 -97.9167 142° Southeast 260 299 17,000  Level Winnipeg Center
04:15 50.5667 -97.8667 155° Southeast 250 288 17,000 -240 Level Winnipeg Center
04:16 50.5000 -97.8000 148° Southeast 260 299 16,600 -1,200 Descending Winnipeg Center
04:17 50.4333 -97.7500 154° Southeast 290 334 14,700 -1,980 Descending Winnipeg Center
04:18 50.4499 -97.7332 147° Southeast  Level FlightAware Approximate
04:18 50.3667 -97.6667 141° Southeast 310 357 12,700  Level Winnipeg Center
04:19 50.2833 -97.6167 159° South 300 345 11,000 -1,980 Descending Winnipeg Center
04:20 50.2167 -97.5333 141° Southeast 280 322 8,800 -2,640 Descending Winnipeg Center
04:21 50.1500 -97.4833 154° Southeast 270 311 5,800 -2,340 Descending Winnipeg Center
04:22 50.1000 -97.4333 147° Southeast 240 276 4,200 -1,500 Descending Winnipeg Center
04:23 50.0333 -97.4167 171° South 210 242 2,800 -1,080 Descending Winnipeg Center
04:24 50.0000 -97.3500 128° Southeast 190 219 2,100 -480 Descending Winnipeg Center
04:25 49.9667 -97.3333 162° South 160 184 1,900 -300 Descending Winnipeg Center
04:26 49.9333 -97.2833 136° Southeast 120 138 1,500 -480 Descending Winnipeg Center
04:27 49.9000 -97.2500 147° Southeast 110 127 1,000 -360 Descending Winnipeg Center
04:28 49.8833 -97.2333 147° Southeast 60 69 800 -120 Descending Winnipeg Center
04:29 49.8833 -97.2333 147° Southeast 30 35 800  Level Winnipeg Center